sensor_id;sensor_type;location;lat;lon;timestamp;temperature;humidity
3923;DHT22;1976;51.694;6.256;2023-05-07T00:17:33;17.50;99.90
3923;DHT22;1976;51.694;6.256;2023-05-07T00:19:58;17.50;99.90
3923;DHT22;1976;51.694;6.256;2023-05-07T00:39:27;17.00;99.90
3923;DHT22;1976;51.694;6.256;2023-05-07T00:46:45;16.90;99.90
3923;DHT22;1976;51.694;6.256;2023-05-07T01:16:04;16.00;99.90
3923;DHT22;1976;51.694;6.256;2023-05-07T01:38:09;16.00;99.90
3923;DHT22;1976;51.694;6.256;2023-05-07T02:00:11;16.00;99.90
3923;DHT22;1976;51.694;6.256;2023-05-07T02:05:04;16.00;99.90
3923;DHT22;1976;51.694;6.256;2023-05-07T02:07:30;15.90;99.90
3923;DHT22;1976;51.694;6.256;2023-05-07T02:12:22;15.90;99.90
3923;DHT22;1976;51.694;6.256;2023-05-07T02:17:14;15.90;99.90
3923;DHT22;1976;51.694;6.256;2023-05-07T02:31:49;16.30;99.90
3923;DHT22;1976;51.694;6.256;2023-05-07T02:34:18;16.30;99.90
3923;DHT22;1976;51.694;6.256;2023-05-07T02:41:37;16.40;99.90
3923;DHT22;1976;51.694;6.256;2023-05-07T02:51:22;16.70;99.90
3923;DHT22;1976;51.694;6.256;2023-05-07T02:53:48;16.80;99.90
3923;DHT22;1976;51.694;6.256;2023-05-07T02:56:14;16.80;99.90
3923;DHT22;1976;51.694;6.256;2023-05-07T03:27:56;16.80;99.90
3923;DHT22;1976;51.694;6.256;2023-05-07T03:42:33;16.50;99.90
3923;DHT22;1976;51.694;6.256;2023-05-07T03:44:59;16.50;99.90
3923;DHT22;1976;51.694;6.256;2023-05-07T04:16:44;16.30;99.90
3923;DHT22;1976;51.694;6.256;2023-05-07T04:33:49;17.00;99.90
3923;DHT22;1976;51.694;6.256;2023-05-07T04:38:42;17.20;99.90
3923;DHT22;1976;51.694;6.256;2023-05-07T04:41:09;17.20;99.90
3923;DHT22;1976;51.694;6.256;2023-05-07T04:55:46;17.10;99.90
3923;DHT22;1976;51.694;6.256;2023-05-07T05:07:57;17.00;99.90
3923;DHT22;1976;51.694;6.256;2023-05-07T05:17:41;17.00;99.90
3923;DHT22;1976;51.694;6.256;2023-05-07T05:27:26;17.20;99.90
3923;DHT22;1976;51.694;6.256;2023-05-07T05:34:43;17.30;99.90
3923;DHT22;1976;51.694;6.256;2023-05-07T05:37:09;17.40;99.90
3923;DHT22;1976;51.694;6.256;2023-05-07T05:51:50;17.50;99.90
3923;DHT22;1976;51.694;6.256;2023-05-07T06:04:04;17.70;99.90
3923;DHT22;1976;51.694;6.256;2023-05-07T06:11:22;18.00;99.90
3923;DHT22;1976;51.694;6.256;2023-05-07T06:18:40;18.50;99.90
3923;DHT22;1976;51.694;6.256;2023-05-07T06:50:19;19.70;99.90
3923;DHT22;1976;51.694;6.256;2023-05-07T07:04:55;20.40;99.90
3923;DHT22;1976;51.694;6.256;2023-05-07T07:07:21;20.50;99.90
3923;DHT22;1976;51.694;6.256;2023-05-07T07:29:14;21.40;99.90
3923;DHT22;1976;51.694;6.256;2023-05-07T07:31:40;21.40;99.90
3923;DHT22;1976;51.694;6.256;2023-05-07T07:34:06;21.50;99.90
3923;DHT22;1976;51.694;6.256;2023-05-07T07:36:31;21.50;99.90
3923;DHT22;1976;51.694;6.256;2023-05-07T07:38:57;21.50;99.90
3923;DHT22;1976;51.694;6.256;2023-05-07T07:41:22;21.60;99.90
3923;DHT22;1976;51.694;6.256;2023-05-07T07:43:48;21.70;99.90
3923;DHT22;1976;51.694;6.256;2023-05-07T07:46:14;21.80;99.90
3923;DHT22;1976;51.694;6.256;2023-05-07T08:00:50;22.60;99.90
3923;DHT22;1976;51.694;6.256;2023-05-07T08:05:42;23.00;99.90
3923;DHT22;1976;51.694;6.256;2023-05-07T08:08:08;23.10;99.90
3923;DHT22;1976;51.694;6.256;2023-05-07T08:15:30;23.80;99.90
3923;DHT22;1976;51.694;6.256;2023-05-07T08:20:23;24.10;99.90
3923;DHT22;1976;51.694;6.256;2023-05-07T08:22:48;24.20;99.90
3923;DHT22;1976;51.694;6.256;2023-05-07T08:25:14;24.30;99.90
3923;DHT22;1976;51.694;6.256;2023-05-07T08:27:40;24.30;99.90
3923;DHT22;1976;51.694;6.256;2023-05-07T08:30:06;24.30;99.50
3923;DHT22;1976;51.694;6.256;2023-05-07T08:32:32;24.30;99.70
3923;DHT22;1976;51.694;6.256;2023-05-07T08:34:58;24.30;99.90
3923;DHT22;1976;51.694;6.256;2023-05-07T08:37:23;24.30;99.50
3923;DHT22;1976;51.694;6.256;2023-05-07T08:39:49;24.30;99.80
3923;DHT22;1976;51.694;6.256;2023-05-07T08:42:16;24.50;99.90
3923;DHT22;1976;51.694;6.256;2023-05-07T08:44:45;23.30;98.30
3923;DHT22;1976;51.694;6.256;2023-05-07T08:47:14;25.10;99.40
3923;DHT22;1976;51.694;6.256;2023-05-07T08:49:39;25.10;98.40
3923;DHT22;1976;51.694;6.256;2023-05-07T08:52:05;25.20;98.10
3923;DHT22;1976;51.694;6.256;2023-05-07T08:54:31;25.20;98.40
3923;DHT22;1976;51.694;6.256;2023-05-07T08:59:23;25.80;97.80
3923;DHT22;1976;51.694;6.256;2023-05-07T09:01:49;25.80;98.20
3923;DHT22;1976;51.694;6.256;2023-05-07T09:04:15;26.10;97.80
3923;DHT22;1976;51.694;6.256;2023-05-07T09:06:40;26.50;97.30
3923;DHT22;1976;51.694;6.256;2023-05-07T09:09:07;27.00;96.70
3923;DHT22;1976;51.694;6.256;2023-05-07T09:11:33;27.20;95.40
3923;DHT22;1976;51.694;6.256;2023-05-07T09:13:59;27.60;95.30
3923;DHT22;1976;51.694;6.256;2023-05-07T09:16:29;27.50;95.50
3923;DHT22;1976;51.694;6.256;2023-05-07T09:18:57;28.20;94.60
3923;DHT22;1976;51.694;6.256;2023-05-07T09:21:23;29.00;93.90
3923;DHT22;1976;51.694;6.256;2023-05-07T09:23:51;29.60;93.30
3923;DHT22;1976;51.694;6.256;2023-05-07T09:26:17;29.80;92.40
3923;DHT22;1976;51.694;6.256;2023-05-07T09:28:43;30.00;91.80
3923;DHT22;1976;51.694;6.256;2023-05-07T09:31:10;30.00;91.60
3923;DHT22;1976;51.694;6.256;2023-05-07T09:33:37;30.00;90.90
3923;DHT22;1976;51.694;6.256;2023-05-07T09:36:06;29.90;90.50
3923;DHT22;1976;51.694;6.256;2023-05-07T09:38:33;29.60;91.10
3923;DHT22;1976;51.694;6.256;2023-05-07T09:41:08;29.50;91.10
3923;DHT22;1976;51.694;6.256;2023-05-07T09:43:36;29.30;91.80
3923;DHT22;1976;51.694;6.256;2023-05-07T09:46:03;29.60;91.20
3923;DHT22;1976;51.694;6.256;2023-05-07T09:48:32;30.50;90.70
3923;DHT22;1976;51.694;6.256;2023-05-07T09:51:01;30.60;90.30
3923;DHT22;1976;51.694;6.256;2023-05-07T09:53:29;30.50;90.00
3923;DHT22;1976;51.694;6.256;2023-05-07T09:55:56;30.40;89.10
3923;DHT22;1976;51.694;6.256;2023-05-07T09:58:22;30.30;89.70
3923;DHT22;1976;51.694;6.256;2023-05-07T10:00:50;29.80;86.60
3923;DHT22;1976;51.694;6.256;2023-05-07T10:03:16;29.50;88.40
3923;DHT22;1976;51.694;6.256;2023-05-07T10:05:44;29.30;89.80
3923;DHT22;1976;51.694;6.256;2023-05-07T10:08:10;29.50;89.50
3923;DHT22;1976;51.694;6.256;2023-05-07T10:10:37;29.70;89.20
3923;DHT22;1976;51.694;6.256;2023-05-07T10:13:03;30.10;89.20
3923;DHT22;1976;51.694;6.256;2023-05-07T10:15:35;30.70;89.20
3923;DHT22;1976;51.694;6.256;2023-05-07T10:18:03;31.20;87.10
3923;DHT22;1976;51.694;6.256;2023-05-07T10:20:28;31.40;86.40
3923;DHT22;1976;51.694;6.256;2023-05-07T10:22:56;31.90;85.30
3923;DHT22;1976;51.694;6.256;2023-05-07T10:25:29;32.50;84.60
3923;DHT22;1976;51.694;6.256;2023-05-07T10:27:58;32.90;81.00
3923;DHT22;1976;51.694;6.256;2023-05-07T10:33:25;33.20;77.20
3923;DHT22;1976;51.694;6.256;2023-05-07T10:35:51;33.80;74.30
3923;DHT22;1976;51.694;6.256;2023-05-07T10:38:21;34.60;76.00
3923;DHT22;1976;51.694;6.256;2023-05-07T12:08:32;31.60;62.20
3923;DHT22;1976;51.694;6.256;2023-05-07T12:10:58;31.40;62.70
3923;DHT22;1976;51.694;6.256;2023-05-07T12:13:25;30.70;64.20
3923;DHT22;1976;51.694;6.256;2023-05-07T12:15:55;30.30;65.00
3923;DHT22;1976;51.694;6.256;2023-05-07T12:18:23;29.90;64.40
3923;DHT22;1976;51.694;6.256;2023-05-07T12:25:42;29.10;69.00
3923;DHT22;1976;51.694;6.256;2023-05-07T12:30:47;29.00;71.10
3923;DHT22;1976;51.694;6.256;2023-05-07T12:33:16;29.00;72.20
3923;DHT22;1976;51.694;6.256;2023-05-07T12:38:13;29.10;70.70
3923;DHT22;1976;51.694;6.256;2023-05-07T12:40:43;29.30;71.60
3923;DHT22;1976;51.694;6.256;2023-05-07T12:43:20;29.30;73.10
3923;DHT22;1976;51.694;6.256;2023-05-07T12:45:50;29.30;73.60
3923;DHT22;1976;51.694;6.256;2023-05-07T12:50:42;28.80;75.40
3923;DHT22;1976;51.694;6.256;2023-05-07T12:53:09;28.50;75.80
3923;DHT22;1976;51.694;6.256;2023-05-07T12:55:47;28.30;76.40
3923;DHT22;1976;51.694;6.256;2023-05-07T12:58:21;28.10;76.20
3923;DHT22;1976;51.694;6.256;2023-05-07T13:00:48;28.00;77.10
3923;DHT22;1976;51.694;6.256;2023-05-07T13:03:29;27.90;77.00
3923;DHT22;1976;51.694;6.256;2023-05-07T13:06:01;27.80;77.40
3923;DHT22;1976;51.694;6.256;2023-05-07T13:15:50;27.50;78.50
3923;DHT22;1976;51.694;6.256;2023-05-07T13:23:08;27.10;80.60
3923;DHT22;1976;51.694;6.256;2023-05-07T13:45:08;25.80;86.50
3923;DHT22;1976;51.694;6.256;2023-05-07T14:04:37;24.90;91.10
3923;DHT22;1976;51.694;6.256;2023-05-07T14:16:47;24.60;93.40
3923;DHT22;1976;51.694;6.256;2023-05-07T14:19:13;24.60;94.30
3923;DHT22;1976;51.694;6.256;2023-05-07T14:24:06;24.50;94.90
3923;DHT22;1976;51.694;6.256;2023-05-07T14:36:18;24.50;97.40
3923;DHT22;1976;51.694;6.256;2023-05-07T14:38:46;24.50;97.70
3923;DHT22;1976;51.694;6.256;2023-05-07T14:41:12;24.50;97.90
3923;DHT22;1976;51.694;6.256;2023-05-07T14:55:48;24.70;98.90
3923;DHT22;1976;51.694;6.256;2023-05-07T15:00:40;24.30;96.30
3923;DHT22;1976;51.694;6.256;2023-05-07T15:03:08;23.60;96.60
3923;DHT22;1976;51.694;6.256;2023-05-07T15:32:22;18.80;99.90
3923;DHT22;1976;51.694;6.256;2023-05-07T15:42:05;18.60;99.90
3923;DHT22;1976;51.694;6.256;2023-05-07T15:46:59;18.60;99.90
3923;DHT22;1976;51.694;6.256;2023-05-07T15:56:46;19.00;99.90
3923;DHT22;1976;51.694;6.256;2023-05-07T16:01:38;19.20;99.90
3923;DHT22;1976;51.694;6.256;2023-05-07T16:04:06;19.40;99.90
3923;DHT22;1976;51.694;6.256;2023-05-07T16:06:32;19.60;99.90
3923;DHT22;1976;51.694;6.256;2023-05-07T16:08:58;19.70;99.90
3923;DHT22;1976;51.694;6.256;2023-05-07T16:11:24;19.90;99.90
3923;DHT22;1976;51.694;6.256;2023-05-07T16:16:16;20.20;99.90
3923;DHT22;1976;51.694;6.256;2023-05-07T16:18:42;20.50;99.90
3923;DHT22;1976;51.694;6.256;2023-05-07T16:21:07;20.70;99.90
3923;DHT22;1976;51.694;6.256;2023-05-07T16:23:33;21.00;99.90
3923;DHT22;1976;51.694;6.256;2023-05-07T16:25:58;21.30;99.90
3923;DHT22;1976;51.694;6.256;2023-05-07T16:28:24;21.70;99.90
3923;DHT22;1976;51.694;6.256;2023-05-07T16:30:50;22.10;99.90
3923;DHT22;1976;51.694;6.256;2023-05-07T16:33:16;22.30;99.90
3923;DHT22;1976;51.694;6.256;2023-05-07T16:35:42;22.60;99.90
3923;DHT22;1976;51.694;6.256;2023-05-07T16:38:11;22.80;99.90
3923;DHT22;1976;51.694;6.256;2023-05-07T16:40:40;23.00;99.90
3923;DHT22;1976;51.694;6.256;2023-05-07T16:43:06;23.10;99.90
3923;DHT22;1976;51.694;6.256;2023-05-07T16:45:32;23.20;99.90
3923;DHT22;1976;51.694;6.256;2023-05-07T16:47:59;23.30;99.90
3923;DHT22;1976;51.694;6.256;2023-05-07T16:50:25;23.40;99.90
3923;DHT22;1976;51.694;6.256;2023-05-07T16:52:50;23.50;99.90
3923;DHT22;1976;51.694;6.256;2023-05-07T16:55:16;23.50;99.90
3923;DHT22;1976;51.694;6.256;2023-05-07T16:57:42;23.50;99.90
3923;DHT22;1976;51.694;6.256;2023-05-07T17:00:08;23.50;99.90
3923;DHT22;1976;51.694;6.256;2023-05-07T17:02:35;23.50;99.90
3923;DHT22;1976;51.694;6.256;2023-05-07T17:05:02;23.30;99.90
3923;DHT22;1976;51.694;6.256;2023-05-07T17:07:28;23.20;99.90
3923;DHT22;1976;51.694;6.256;2023-05-07T17:09:53;23.00;99.90
3923;DHT22;1976;51.694;6.256;2023-05-07T17:12:19;22.90;99.90
3923;DHT22;1976;51.694;6.256;2023-05-07T17:14:45;22.90;99.90
3923;DHT22;1976;51.694;6.256;2023-05-07T17:17:11;22.90;99.90
3923;DHT22;1976;51.694;6.256;2023-05-07T17:19:37;22.90;99.90
3923;DHT22;1976;51.694;6.256;2023-05-07T17:22:03;22.90;99.90
3923;DHT22;1976;51.694;6.256;2023-05-07T17:24:29;22.90;99.90
3923;DHT22;1976;51.694;6.256;2023-05-07T17:26:55;22.80;99.90
3923;DHT22;1976;51.694;6.256;2023-05-07T17:29:20;22.70;99.90
3923;DHT22;1976;51.694;6.256;2023-05-07T17:31:46;22.60;99.90
3923;DHT22;1976;51.694;6.256;2023-05-07T17:34:13;22.50;99.90
3923;DHT22;1976;51.694;6.256;2023-05-07T17:36:39;22.40;99.90
3923;DHT22;1976;51.694;6.256;2023-05-07T17:39:04;22.30;99.90
3923;DHT22;1976;51.694;6.256;2023-05-07T17:41:30;22.10;99.90
3923;DHT22;1976;51.694;6.256;2023-05-07T17:43:56;22.00;99.90
3923;DHT22;1976;51.694;6.256;2023-05-07T17:46:21;21.80;99.90
3923;DHT22;1976;51.694;6.256;2023-05-07T17:48:47;21.70;99.90
3923;DHT22;1976;51.694;6.256;2023-05-07T17:51:12;21.40;99.90
3923;DHT22;1976;51.694;6.256;2023-05-07T17:53:38;21.40;99.90
3923;DHT22;1976;51.694;6.256;2023-05-07T17:56:04;21.20;99.90
3923;DHT22;1976;51.694;6.256;2023-05-07T17:58:30;21.10;99.90
3923;DHT22;1976;51.694;6.256;2023-05-07T18:00:55;20.90;99.90
3923;DHT22;1976;51.694;6.256;2023-05-07T18:03:21;20.80;99.90
3923;DHT22;1976;51.694;6.256;2023-05-07T18:05:48;20.70;99.90
3923;DHT22;1976;51.694;6.256;2023-05-07T18:08:14;20.60;99.90
3923;DHT22;1976;51.694;6.256;2023-05-07T18:10:40;20.50;99.90
3923;DHT22;1976;51.694;6.256;2023-05-07T18:13:06;20.40;99.90
3923;DHT22;1976;51.694;6.256;2023-05-07T18:15:31;20.30;99.90
3923;DHT22;1976;51.694;6.256;2023-05-07T18:17:57;20.20;99.90
3923;DHT22;1976;51.694;6.256;2023-05-07T18:20:23;20.10;99.90
3923;DHT22;1976;51.694;6.256;2023-05-07T18:22:49;20.00;99.90
3923;DHT22;1976;51.694;6.256;2023-05-07T18:25:15;20.00;99.90
3923;DHT22;1976;51.694;6.256;2023-05-07T18:27:40;19.90;99.90
3923;DHT22;1976;51.694;6.256;2023-05-07T18:30:06;19.90;99.90
3923;DHT22;1976;51.694;6.256;2023-05-07T18:32:32;19.80;99.90
3923;DHT22;1976;51.694;6.256;2023-05-07T18:34:58;19.80;99.90
3923;DHT22;1976;51.694;6.256;2023-05-07T18:37:23;19.70;99.90
3923;DHT22;1976;51.694;6.256;2023-05-07T18:39:49;19.70;99.90
3923;DHT22;1976;51.694;6.256;2023-05-07T18:42:15;19.60;99.90
3923;DHT22;1976;51.694;6.256;2023-05-07T18:44:40;19.50;99.90
3923;DHT22;1976;51.694;6.256;2023-05-07T18:47:07;19.50;99.90
3923;DHT22;1976;51.694;6.256;2023-05-07T18:49:33;19.50;99.90
3923;DHT22;1976;51.694;6.256;2023-05-07T18:52:00;19.40;99.90
3923;DHT22;1976;51.694;6.256;2023-05-07T18:54:25;19.40;99.90
3923;DHT22;1976;51.694;6.256;2023-05-07T18:56:51;19.40;99.90
3923;DHT22;1976;51.694;6.256;2023-05-07T18:59:17;19.30;99.90
3923;DHT22;1976;51.694;6.256;2023-05-07T19:01:43;19.30;99.90
3923;DHT22;1976;51.694;6.256;2023-05-07T19:04:08;19.20;99.90
3923;DHT22;1976;51.694;6.256;2023-05-07T19:06:34;19.20;99.90
3923;DHT22;1976;51.694;6.256;2023-05-07T19:09:00;19.20;99.90
3923;DHT22;1976;51.694;6.256;2023-05-07T19:11:26;19.20;99.90
3923;DHT22;1976;51.694;6.256;2023-05-07T19:13:52;19.20;99.90
3923;DHT22;1976;51.694;6.256;2023-05-07T19:16:17;19.20;99.90
3923;DHT22;1976;51.694;6.256;2023-05-07T19:18:43;19.10;99.90
3923;DHT22;1976;51.694;6.256;2023-05-07T19:21:09;19.10;99.90
3923;DHT22;1976;51.694;6.256;2023-05-07T19:23:35;19.10;99.90
3923;DHT22;1976;51.694;6.256;2023-05-07T19:26:09;19.10;99.90
3923;DHT22;1976;51.694;6.256;2023-05-07T19:28:38;19.00;99.90
3923;DHT22;1976;51.694;6.256;2023-05-07T19:31:04;19.00;99.90
3923;DHT22;1976;51.694;6.256;2023-05-07T19:33:30;19.00;99.90
3923;DHT22;1976;51.694;6.256;2023-05-07T19:35:56;18.90;99.90
3923;DHT22;1976;51.694;6.256;2023-05-07T19:38:25;18.90;99.90
3923;DHT22;1976;51.694;6.256;2023-05-07T19:40:54;18.90;99.90
3923;DHT22;1976;51.694;6.256;2023-05-07T19:43:21;18.90;99.90
3923;DHT22;1976;51.694;6.256;2023-05-07T19:45:47;18.80;99.90
3923;DHT22;1976;51.694;6.256;2023-05-07T19:48:14;18.80;99.90
3923;DHT22;1976;51.694;6.256;2023-05-07T19:50:40;18.80;99.90
3923;DHT22;1976;51.694;6.256;2023-05-07T19:53:05;18.80;99.90
3923;DHT22;1976;51.694;6.256;2023-05-07T19:55:31;18.80;99.90
3923;DHT22;1976;51.694;6.256;2023-05-07T19:57:57;18.70;99.90
3923;DHT22;1976;51.694;6.256;2023-05-07T20:00:23;18.70;99.90
3923;DHT22;1976;51.694;6.256;2023-05-07T20:02:51;18.70;99.90
3923;DHT22;1976;51.694;6.256;2023-05-07T20:05:17;18.70;99.90
3923;DHT22;1976;51.694;6.256;2023-05-07T20:07:42;18.70;99.90
3923;DHT22;1976;51.694;6.256;2023-05-07T20:10:09;18.70;99.90
3923;DHT22;1976;51.694;6.256;2023-05-07T20:12:35;18.70;99.90
3923;DHT22;1976;51.694;6.256;2023-05-07T20:15:01;18.70;99.90
3923;DHT22;1976;51.694;6.256;2023-05-07T20:17:27;18.70;99.90
3923;DHT22;1976;51.694;6.256;2023-05-07T20:19:53;18.50;99.90
3923;DHT22;1976;51.694;6.256;2023-05-07T20:22:19;18.50;99.90
3923;DHT22;1976;51.694;6.256;2023-05-07T20:24:45;18.50;99.90
3923;DHT22;1976;51.694;6.256;2023-05-07T20:27:10;18.50;99.90
3923;DHT22;1976;51.694;6.256;2023-05-07T20:29:36;18.50;99.90
3923;DHT22;1976;51.694;6.256;2023-05-07T20:32:02;18.40;99.90
3923;DHT22;1976;51.694;6.256;2023-05-07T20:34:28;18.40;99.90
3923;DHT22;1976;51.694;6.256;2023-05-07T20:36:53;18.50;99.90
3923;DHT22;1976;51.694;6.256;2023-05-07T20:39:19;18.60;99.90
3923;DHT22;1976;51.694;6.256;2023-05-07T20:41:44;18.60;99.90
3923;DHT22;1976;51.694;6.256;2023-05-07T20:44:10;18.70;99.90
3923;DHT22;1976;51.694;6.256;2023-05-07T20:46:36;18.70;99.90
3923;DHT22;1976;51.694;6.256;2023-05-07T20:49:03;18.80;99.90
3923;DHT22;1976;51.694;6.256;2023-05-07T20:51:29;18.80;99.90
3923;DHT22;1976;51.694;6.256;2023-05-07T20:53:55;18.80;99.90
3923;DHT22;1976;51.694;6.256;2023-05-07T20:56:21;18.80;99.90
3923;DHT22;1976;51.694;6.256;2023-05-07T20:58:47;18.80;99.90
3923;DHT22;1976;51.694;6.256;2023-05-07T21:01:13;18.70;99.90
